createdAt,value
2023-06-28T00:01:29.350Z,22.52
2023-06-28T00:03:58.011Z,22.52
2023-06-28T00:06:26.230Z,22.52
2023-06-28T00:08:54.232Z,22.53
2023-06-28T00:11:22.348Z,22.51
2023-06-28T00:13:50.579Z,22.50
2023-06-28T00:16:18.887Z,22.48
2023-06-28T00:18:47.008Z,22.47
2023-06-28T00:21:15.048Z,22.46
2023-06-28T00:23:44.058Z,22.44
2023-06-28T00:26:12.303Z,22.42
2023-06-28T00:28:41.508Z,22.40
2023-06-28T00:31:11.126Z,22.38
2023-06-28T00:33:39.496Z,22.35
2023-06-28T00:36:07.561Z,22.33
2023-06-28T00:38:38.604Z,22.31
2023-06-28T00:41:06.824Z,22.29
2023-06-28T00:43:35.144Z,22.27
2023-06-28T00:46:03.354Z,22.23
2023-06-28T00:48:31.788Z,22.19
2023-06-28T00:51:00.685Z,22.16
2023-06-28T00:53:29.020Z,22.14
2023-06-28T00:55:58.951Z,22.11
2023-06-28T00:58:27.379Z,22.09
2023-06-28T01:00:56.292Z,22.06
2023-06-28T01:03:25.068Z,22.04
2023-06-28T01:05:54.545Z,22.02
2023-06-28T01:08:26.013Z,21.97
2023-06-28T01:10:54.896Z,21.91
2023-06-28T01:13:23.912Z,21.85
2023-06-28T01:15:52.146Z,21.81
2023-06-28T01:18:22.712Z,21.76
2023-06-28T01:20:55.873Z,21.72
2023-06-28T01:23:26.758Z,21.69
2023-06-28T01:25:56.372Z,21.69
2023-06-28T01:28:24.575Z,21.68
2023-06-28T01:30:54.231Z,21.68
2023-06-28T01:33:22.640Z,21.65
2023-06-28T01:35:51.044Z,21.63
2023-06-28T01:38:20.467Z,21.61
2023-06-28T01:40:52.711Z,21.59
2023-06-28T01:43:22.429Z,21.56
2023-06-28T01:45:51.445Z,21.53
2023-06-28T01:48:19.974Z,21.49
2023-06-28T01:50:48.195Z,21.45
2023-06-28T01:53:19.091Z,21.43
2023-06-28T01:55:47.238Z,21.41
2023-06-28T01:58:15.358Z,21.37
2023-06-28T02:00:43.855Z,21.29
2023-06-28T02:03:12.294Z,21.25
2023-06-28T02:05:41.702Z,21.23
2023-06-28T02:08:09.860Z,21.22
2023-06-28T02:10:38.179Z,21.20
2023-06-28T02:13:08.523Z,21.17
2023-06-28T02:15:37.136Z,21.14
2023-06-28T02:18:06.447Z,21.10
2023-06-28T02:20:34.868Z,21.06
2023-06-28T02:23:04.892Z,21.02
2023-06-28T02:25:32.916Z,21.00
2023-06-28T02:28:01.286Z,20.99
2023-06-28T02:30:29.660Z,21.01
2023-06-28T02:32:58.135Z,21.02
2023-06-28T02:35:26.298Z,21.05
2023-06-28T02:37:54.921Z,21.08
2023-06-28T02:40:23.138Z,21.11
2023-06-28T02:42:51.351Z,21.14
2023-06-28T02:45:20.582Z,21.16
2023-06-28T02:47:49.165Z,21.19
2023-06-28T02:50:17.428Z,21.22
2023-06-28T02:53:05.822Z,21.24
2023-06-28T02:55:33.952Z,21.26
2023-06-28T02:58:05.069Z,21.28
2023-06-28T03:00:33.657Z,21.28
2023-06-28T03:03:05.408Z,21.28
2023-06-28T03:05:34.149Z,21.25
2023-06-28T03:08:02.273Z,21.22
2023-06-28T03:10:30.590Z,21.20
2023-06-28T03:12:59.609Z,21.20
2023-06-28T03:15:28.025Z,21.23
2023-06-28T03:17:56.421Z,21.26
2023-06-28T03:20:24.774Z,21.28
2023-06-28T03:22:52.888Z,21.31
2023-06-28T03:25:21.160Z,21.33
2023-06-28T03:27:50.734Z,21.37
2023-06-28T03:30:19.461Z,21.43
2023-06-28T03:32:48.042Z,21.49
2023-06-28T03:35:16.504Z,21.56
2023-06-28T03:37:52.018Z,21.62
2023-06-28T03:40:21.303Z,21.67
2023-06-28T03:42:50.393Z,21.72
2023-06-28T03:45:19.315Z,21.76
2023-06-28T03:47:49.281Z,21.80
2023-06-28T03:50:17.565Z,21.83
2023-06-28T03:52:45.579Z,21.88
2023-06-28T03:55:14.203Z,21.96
2023-06-28T03:57:42.337Z,22.04
2023-06-28T04:00:11.933Z,22.12
2023-06-28T04:02:43.172Z,22.19
2023-06-28T04:05:11.906Z,22.27
2023-06-28T04:07:40.503Z,22.35
2023-06-28T04:10:09.425Z,22.43
2023-06-28T04:12:37.578Z,22.49
2023-06-28T04:15:07.571Z,22.57
2023-06-28T04:17:35.743Z,22.64
2023-06-28T04:20:07.443Z,22.72
2023-06-28T04:22:36.266Z,22.81
2023-06-28T04:25:04.828Z,22.91
2023-06-28T04:27:33.046Z,22.98
2023-06-28T04:30:01.445Z,23.04
2023-06-28T04:32:31.025Z,23.09
2023-06-28T04:35:00.695Z,23.14
2023-06-28T04:37:32.967Z,23.21
2023-06-28T04:40:05.361Z,23.28
2023-06-28T04:42:33.669Z,23.34
2023-06-28T04:45:01.697Z,23.41
2023-06-28T04:47:31.257Z,23.44
2023-06-28T04:50:00.390Z,23.49
2023-06-28T04:52:28.658Z,23.54
2023-06-28T04:54:59.407Z,23.57
2023-06-28T04:57:28.820Z,23.58
2023-06-28T04:59:58.713Z,23.57
2023-06-28T05:02:27.152Z,23.59
2023-06-28T05:04:56.005Z,23.63
2023-06-28T05:07:24.134Z,23.66
2023-06-28T05:09:52.225Z,23.69
2023-06-28T05:12:20.445Z,23.75
2023-06-28T05:14:48.669Z,23.81
2023-06-28T05:17:16.884Z,23.86
2023-06-28T05:19:44.910Z,23.91
2023-06-28T05:22:13.026Z,23.99
2023-06-28T05:24:41.050Z,24.08
2023-06-28T05:27:09.163Z,24.14
2023-06-28T05:29:37.190Z,24.19
2023-06-28T05:32:05.917Z,24.20
2023-06-28T05:34:35.438Z,24.25
2023-06-28T05:37:04.172Z,24.32
2023-06-28T05:39:32.384Z,24.39
2023-06-28T05:42:00.593Z,24.44
2023-06-28T05:44:28.920Z,24.50
2023-06-28T05:46:57.259Z,24.55
2023-06-28T05:49:25.660Z,24.57
2023-06-28T05:51:53.781Z,24.62
2023-06-28T05:54:21.923Z,24.70
2023-06-28T05:56:50.116Z,24.77
2023-06-28T05:59:18.238Z,24.81
2023-06-28T06:01:46.318Z,24.84
2023-06-28T06:04:14.743Z,24.89
2023-06-28T06:06:42.897Z,24.97
2023-06-28T06:09:10.915Z,25.04
2023-06-28T06:11:39.136Z,25.11
2023-06-28T06:14:07.255Z,25.19
2023-06-28T06:16:35.278Z,25.25
2023-06-28T06:19:03.604Z,25.28
2023-06-28T06:21:31.819Z,25.30
2023-06-28T06:24:01.394Z,25.32
2023-06-28T06:26:29.668Z,25.31
2023-06-28T06:28:57.895Z,25.29
2023-06-28T06:31:26.111Z,25.26
2023-06-28T06:33:54.679Z,25.19
2023-06-28T06:36:22.844Z,25.13
2023-06-28T06:38:50.970Z,25.11
2023-06-28T06:41:19.288Z,25.11
2023-06-28T06:43:47.515Z,25.12
2023-06-28T06:46:15.639Z,25.16
2023-06-28T06:48:43.750Z,25.15
2023-06-28T06:51:11.874Z,25.14
2023-06-28T06:53:40.092Z,25.10
2023-06-28T06:56:08.514Z,25.08
2023-06-28T06:58:38.027Z,25.12
2023-06-28T07:01:06.517Z,25.18
2023-06-28T07:03:35.478Z,25.19
2023-06-28T07:06:03.701Z,25.23
2023-06-28T07:08:32.023Z,25.35
2023-06-28T07:11:00.237Z,25.46
2023-06-28T07:13:28.457Z,25.48
2023-06-28T07:15:57.519Z,25.51
2023-06-28T07:18:25.758Z,25.60
2023-06-28T07:20:54.228Z,25.74
2023-06-28T07:23:22.741Z,25.80
2023-06-28T07:25:50.870Z,25.70
2023-06-28T07:28:19.085Z,25.66
2023-06-28T07:31:00.191Z,25.73
2023-06-28T07:33:28.466Z,25.84
2023-06-28T07:35:56.589Z,25.97
2023-06-28T07:38:24.814Z,26.08
2023-06-28T07:40:54.539Z,26.20
2023-06-28T07:43:22.974Z,26.23
2023-06-28T07:45:51.830Z,26.29
2023-06-28T07:48:21.209Z,26.32
2023-06-28T07:50:49.445Z,26.36
2023-06-28T07:53:17.655Z,26.35
2023-06-28T07:55:45.880Z,26.33
2023-06-28T07:58:14.086Z,26.36
2023-06-28T08:00:42.407Z,26.37
2023-06-28T08:03:11.490Z,26.37
2023-06-28T08:05:40.169Z,26.31
2023-06-28T08:08:08.811Z,26.30
2023-06-28T08:10:37.001Z,26.33
2023-06-28T08:13:05.320Z,26.33
2023-06-28T08:15:37.766Z,26.36
2023-06-28T08:18:09.572Z,26.36
2023-06-28T08:20:42.154Z,26.35
2023-06-28T08:23:12.047Z,26.34
2023-06-28T08:25:41.393Z,26.36
2023-06-28T08:28:09.809Z,26.40
2023-06-28T08:30:38.128Z,26.43
2023-06-28T08:33:06.376Z,26.46
2023-06-28T08:35:34.761Z,26.42
2023-06-28T08:38:04.733Z,26.37
2023-06-28T08:40:33.505Z,26.27
2023-06-28T08:43:03.228Z,26.28
2023-06-28T08:45:34.910Z,26.25
2023-06-28T08:48:10.053Z,26.22
2023-06-28T08:50:53.174Z,26.26
2023-06-28T08:53:23.039Z,26.31
2023-06-28T08:55:52.592Z,26.35
2023-06-28T08:58:21.866Z,26.38
2023-06-28T09:00:50.094Z,26.45
2023-06-28T09:03:20.006Z,26.52
2023-06-28T09:05:48.423Z,26.60
2023-06-28T09:08:19.030Z,26.64
2023-06-28T09:10:47.373Z,26.71
2023-06-28T09:13:21.281Z,26.60
2023-06-28T09:15:49.955Z,26.47
2023-06-28T09:18:18.178Z,26.41
2023-06-28T09:20:56.550Z,26.25
2023-06-28T09:23:29.460Z,25.95
2023-06-28T09:25:58.297Z,25.76
2023-06-28T09:28:35.719Z,25.69
2023-06-28T09:31:07.755Z,25.59
2023-06-28T09:33:35.988Z,25.41
2023-06-28T09:36:04.519Z,25.16
2023-06-28T09:38:34.962Z,25.00
2023-06-28T09:41:03.864Z,25.00
2023-06-28T09:43:34.841Z,25.04
2023-06-28T09:46:17.082Z,25.25
2023-06-28T09:48:49.695Z,25.43
2023-06-28T09:51:19.110Z,25.62
2023-06-28T09:53:51.746Z,25.62
2023-06-28T09:56:43.953Z,25.38
2023-06-28T09:59:19.878Z,25.33
2023-06-28T10:02:02.386Z,25.27
2023-06-28T10:04:32.105Z,25.19
2023-06-28T10:07:02.285Z,25.12
2023-06-28T10:09:41.091Z,24.99
2023-06-28T10:12:14.443Z,24.86
2023-06-28T10:14:46.604Z,24.86
2023-06-28T10:17:16.179Z,25.01
2023-06-28T10:19:45.232Z,25.16
2023-06-28T10:22:15.065Z,25.31
2023-06-28T10:24:44.473Z,25.47
2023-06-28T10:27:14.413Z,25.58
2023-06-28T10:29:44.496Z,25.83
2023-06-28T10:32:12.868Z,26.07
2023-06-28T10:34:43.171Z,26.25
2023-06-28T10:37:11.477Z,26.33
2023-06-28T10:39:40.292Z,26.32
2023-06-28T10:42:08.913Z,26.34
2023-06-28T10:44:51.718Z,26.42
2023-06-28T10:47:20.143Z,26.42
2023-06-28T10:50:12.524Z,26.44
2023-06-28T10:52:46.852Z,26.58
2023-06-28T10:55:22.128Z,26.71
2023-06-28T10:58:12.618Z,26.83
2023-06-28T11:00:48.606Z,26.95
2023-06-28T11:03:17.286Z,27.10
2023-06-28T11:05:55.618Z,27.19
2023-06-28T11:08:38.586Z,27.28
2023-06-28T11:11:08.959Z,27.37
2023-06-28T11:13:40.267Z,27.50
2023-06-28T11:16:27.540Z,27.57
2023-06-28T11:18:55.810Z,27.57
2023-06-28T11:21:25.822Z,27.58
2023-06-28T11:23:56.364Z,27.56
2023-06-28T11:26:38.479Z,27.48
2023-06-28T11:29:20.264Z,27.49
2023-06-28T11:31:58.225Z,27.56
2023-06-28T11:34:27.309Z,27.48
2023-06-28T11:36:57.583Z,27.31
2023-06-28T11:39:26.693Z,27.23
2023-06-28T11:41:54.832Z,27.04
2023-06-28T11:44:23.331Z,26.79
2023-06-28T11:46:51.448Z,26.63
2023-06-28T11:49:20.772Z,26.54
2023-06-28T11:51:52.767Z,26.51
2023-06-28T11:54:22.033Z,26.40
2023-06-28T11:56:51.076Z,26.20
2023-06-28T11:59:22.187Z,26.09
2023-06-28T12:02:05.971Z,25.89
2023-06-28T12:04:38.428Z,25.64
2023-06-28T12:07:06.971Z,25.41
2023-06-28T12:09:36.987Z,25.23
2023-06-28T12:12:07.945Z,25.14
2023-06-28T12:14:45.128Z,25.06
2023-06-28T12:17:13.445Z,25.02
2023-06-28T12:19:42.096Z,24.98
2023-06-28T12:22:10.431Z,24.95
2023-06-28T12:24:39.306Z,24.93
2023-06-28T12:27:10.036Z,24.94
2023-06-28T12:29:38.961Z,24.90
2023-06-28T12:32:13.127Z,24.93
2023-06-28T12:34:49.858Z,24.99
2023-06-28T12:37:18.776Z,25.09
2023-06-28T12:39:47.199Z,25.20
2023-06-28T12:42:18.122Z,25.25
2023-06-28T12:44:55.679Z,25.38
2023-06-28T12:47:30.981Z,25.45
2023-06-28T12:50:00.273Z,25.40
2023-06-28T12:52:30.374Z,25.34
2023-06-28T12:54:59.089Z,25.27
2023-06-28T12:57:30.436Z,25.16
2023-06-28T12:59:58.774Z,24.99
2023-06-28T13:02:27.285Z,24.91
2023-06-28T13:04:55.740Z,24.92
2023-06-28T13:07:24.133Z,24.89
2023-06-28T13:09:52.332Z,24.88
2023-06-28T13:12:20.568Z,24.82
2023-06-28T13:14:48.776Z,24.78
2023-06-28T13:17:17.106Z,24.70
2023-06-28T13:19:45.118Z,24.60
2023-06-28T13:22:13.537Z,24.53
2023-06-28T13:24:41.762Z,24.45
2023-06-28T13:27:10.279Z,24.37
2023-06-28T13:29:38.602Z,24.30
2023-06-28T13:32:07.677Z,24.24
2023-06-28T13:34:36.250Z,24.19
2023-06-28T13:37:12.704Z,24.15
2023-06-28T13:39:51.349Z,24.12
2023-06-28T13:42:19.369Z,24.17
2023-06-28T13:44:47.492Z,24.24
2023-06-28T13:47:15.712Z,24.34
2023-06-28T13:49:43.832Z,24.54
2023-06-28T13:52:12.253Z,24.72
2023-06-28T13:54:40.375Z,24.81
2023-06-28T13:57:08.391Z,24.84
2023-06-28T13:59:36.514Z,24.61
2023-06-28T14:02:05.920Z,24.43
2023-06-28T14:04:34.160Z,24.22
2023-06-28T14:07:03.057Z,24.06
2023-06-28T14:09:31.404Z,23.98
2023-06-28T14:12:01.090Z,23.85
2023-06-28T14:14:30.261Z,23.67
2023-06-28T14:16:58.467Z,23.52
2023-06-28T14:19:26.589Z,23.37
2023-06-28T14:21:54.912Z,23.22
2023-06-28T14:24:23.042Z,23.12
2023-06-28T14:26:54.268Z,23.01
2023-06-28T14:29:22.491Z,22.93
2023-06-28T14:31:50.699Z,22.80
2023-06-28T14:34:18.931Z,22.65
2023-06-28T14:36:47.138Z,22.52
2023-06-28T14:39:15.271Z,22.40
2023-06-28T14:41:43.493Z,22.28
2023-06-28T14:44:11.597Z,22.18
2023-06-28T14:46:40.021Z,22.09
2023-06-28T14:49:08.149Z,22.03
2023-06-28T14:51:36.161Z,21.94
2023-06-28T14:54:04.382Z,21.87
2023-06-28T14:56:33.106Z,21.77
2023-06-28T14:59:01.324Z,21.71
2023-06-28T15:01:29.498Z,21.63
2023-06-28T15:03:58.289Z,21.59
2023-06-28T15:06:26.586Z,21.53
2023-06-28T15:08:55.108Z,21.46
2023-06-28T15:11:23.346Z,21.41
2023-06-28T15:13:51.466Z,21.37
2023-06-28T15:16:19.925Z,21.31
2023-06-28T15:18:48.991Z,21.28
2023-06-28T15:21:17.232Z,21.25
2023-06-28T15:23:45.693Z,21.19
2023-06-28T15:26:13.834Z,21.13
2023-06-28T15:28:41.983Z,20.97
2023-06-28T15:31:10.131Z,20.85
2023-06-28T15:33:38.636Z,20.70
2023-06-28T15:36:06.740Z,20.55
2023-06-28T15:38:34.859Z,20.46
2023-06-28T15:41:03.078Z,20.35
2023-06-28T15:43:31.203Z,20.29
2023-06-28T15:46:00.044Z,20.25
2023-06-28T15:48:28.241Z,20.22
2023-06-28T15:50:56.464Z,20.20
2023-06-28T15:53:24.581Z,20.15
2023-06-28T15:55:52.802Z,20.14
2023-06-28T15:58:20.933Z,20.09
2023-06-28T16:00:50.455Z,20.05
2023-06-28T16:03:19.248Z,20.01
2023-06-28T16:05:47.591Z,19.99
2023-06-28T16:08:15.720Z,19.98
2023-06-28T16:10:44.152Z,19.98
2023-06-28T16:13:15.867Z,19.99
2023-06-28T16:15:43.983Z,20.00
2023-06-28T16:18:12.312Z,19.95
2023-06-28T16:20:40.419Z,19.92
2023-06-28T16:23:08.640Z,19.86
2023-06-28T16:25:36.867Z,19.86
2023-06-28T16:28:05.331Z,19.85
2023-06-28T16:30:33.517Z,19.82
2023-06-28T16:33:05.074Z,19.77
2023-06-28T16:35:33.362Z,19.69
2023-06-28T16:38:02.186Z,19.63
2023-06-28T16:40:30.609Z,19.61
2023-06-28T16:42:58.770Z,19.59
2023-06-28T16:45:26.943Z,19.59
2023-06-28T16:47:55.116Z,19.57
2023-06-28T16:50:23.544Z,19.52
2023-06-28T16:52:52.006Z,19.49
2023-06-28T16:55:20.959Z,19.45
2023-06-28T16:57:49.263Z,19.40
2023-06-28T17:00:18.344Z,19.37
2023-06-28T17:02:47.899Z,19.33
2023-06-28T17:05:16.648Z,19.28
2023-06-28T17:07:45.041Z,19.26
2023-06-28T17:10:16.172Z,19.21
2023-06-28T17:12:44.306Z,19.15
2023-06-28T17:15:13.544Z,19.09
2023-06-28T17:17:41.871Z,19.05
2023-06-28T17:20:10.087Z,19.02
2023-06-28T17:22:39.792Z,18.96
2023-06-28T17:25:08.610Z,18.90
2023-06-28T17:27:36.826Z,18.89
2023-06-28T17:30:05.656Z,18.86
2023-06-28T17:32:34.039Z,18.87
2023-06-28T17:35:02.085Z,18.83
2023-06-28T17:37:31.229Z,18.82
2023-06-28T17:39:59.430Z,18.79
2023-06-28T17:42:27.654Z,18.77
2023-06-28T17:44:55.872Z,18.75
2023-06-28T17:47:24.124Z,18.70
2023-06-28T17:49:52.317Z,18.66
2023-06-28T17:52:20.839Z,18.60
2023-06-28T17:54:49.252Z,18.56
2023-06-28T17:57:17.582Z,18.53
2023-06-28T17:59:47.100Z,18.49
2023-06-28T18:02:16.924Z,18.44
2023-06-28T18:04:46.857Z,18.44
2023-06-28T18:07:15.029Z,18.41
2023-06-28T18:09:43.294Z,18.36
2023-06-28T18:12:14.097Z,18.31
2023-06-28T18:14:43.822Z,18.27
2023-06-28T18:17:12.571Z,18.22
2023-06-28T18:19:43.102Z,18.18
2023-06-28T18:22:11.232Z,18.14
2023-06-28T18:24:39.544Z,18.10
2023-06-28T18:27:07.864Z,18.08
2023-06-28T18:29:35.911Z,18.05
2023-06-28T18:32:04.716Z,17.98
2023-06-28T18:34:33.026Z,17.89
2023-06-28T18:37:01.253Z,17.86
2023-06-28T18:39:29.469Z,17.83
2023-06-28T18:41:57.684Z,17.78
2023-06-28T18:44:25.823Z,17.75
2023-06-28T18:46:54.134Z,17.68
2023-06-28T18:49:22.353Z,17.64
2023-06-28T18:51:50.476Z,17.63
2023-06-28T18:54:18.720Z,17.59
2023-06-28T18:56:46.905Z,17.59
2023-06-28T18:59:15.336Z,17.57
2023-06-28T19:01:43.595Z,17.55
2023-06-28T19:04:13.897Z,17.50
2023-06-28T19:06:42.609Z,17.44
2023-06-28T19:09:10.842Z,17.41
2023-06-28T19:11:39.045Z,17.32
2023-06-28T19:14:07.161Z,17.28
2023-06-28T19:16:35.489Z,17.28
2023-06-28T19:19:04.210Z,17.24
2023-06-28T19:21:32.327Z,17.21
2023-06-28T19:24:00.546Z,17.25
2023-06-28T19:26:28.779Z,17.28
2023-06-28T19:28:57.003Z,17.27
2023-06-28T19:31:26.550Z,17.24
2023-06-28T19:33:54.833Z,17.23
2023-06-28T19:36:24.436Z,17.19
2023-06-28T19:38:52.575Z,17.16
2023-06-28T19:41:21.802Z,17.12
2023-06-28T19:43:50.041Z,17.08
2023-06-28T19:46:18.442Z,17.05
2023-06-28T19:48:46.668Z,17.05
2023-06-28T19:51:15.587Z,17.02
2023-06-28T19:53:43.709Z,16.99
2023-06-28T19:56:12.530Z,16.98
2023-06-28T19:58:40.944Z,16.95
2023-06-28T20:01:09.540Z,16.94
2023-06-28T20:03:38.302Z,16.95
2023-06-28T20:06:06.722Z,16.95
2023-06-28T20:08:34.923Z,16.96
2023-06-28T20:11:03.690Z,17.00
2023-06-28T20:13:32.567Z,16.99
2023-06-28T20:16:00.994Z,16.99
2023-06-28T20:18:29.328Z,17.02
2023-06-28T20:20:58.053Z,17.00
2023-06-28T20:23:26.883Z,16.99
2023-06-28T20:25:55.085Z,17.03
2023-06-28T20:28:23.228Z,17.06
2023-06-28T20:30:51.723Z,17.06
2023-06-28T20:33:19.945Z,17.08
2023-06-28T20:35:48.451Z,17.08
2023-06-28T20:38:17.488Z,17.06
2023-06-28T20:40:46.717Z,17.04
2023-06-28T20:43:19.157Z,17.04
2023-06-28T20:45:48.170Z,17.04
2023-06-28T20:48:18.123Z,17.04
2023-06-28T20:50:47.533Z,17.06
2023-06-28T20:53:15.749Z,17.01
2023-06-28T20:55:44.095Z,16.98
2023-06-28T20:58:12.302Z,16.92
2023-06-28T21:00:40.412Z,16.85
2023-06-28T21:03:08.567Z,16.81
2023-06-28T21:05:38.560Z,16.80
2023-06-28T21:08:06.779Z,16.77
2023-06-28T21:10:38.523Z,16.73
2023-06-28T21:13:08.262Z,16.73
2023-06-28T21:15:36.474Z,16.78
2023-06-28T21:18:08.474Z,16.81
2023-06-28T21:20:36.809Z,16.84
2023-06-28T21:23:04.985Z,16.86
2023-06-28T21:25:34.564Z,16.86
2023-06-28T21:28:02.675Z,16.90
2023-06-28T21:30:30.800Z,16.94
2023-06-28T21:32:59.059Z,16.96
2023-06-28T21:35:29.963Z,16.93
2023-06-28T21:37:58.159Z,16.89
2023-06-28T21:40:26.378Z,16.84
2023-06-28T21:42:54.608Z,16.83
2023-06-28T21:45:22.726Z,16.78
2023-06-28T21:47:51.000Z,16.77
2023-06-28T21:50:19.290Z,16.76
2023-06-28T21:52:47.490Z,16.76
2023-06-28T21:55:15.804Z,16.72
2023-06-28T21:57:43.825Z,16.69
2023-06-28T22:00:25.309Z,16.68
2023-06-28T22:02:53.944Z,16.65
2023-06-28T22:05:24.347Z,16.63
2023-06-28T22:07:53.851Z,16.63
2023-06-28T22:10:22.088Z,16.63
2023-06-28T22:12:50.813Z,16.62
2023-06-28T22:15:19.031Z,16.57
2023-06-28T22:17:47.286Z,16.57
2023-06-28T22:20:16.774Z,16.58
2023-06-28T22:22:45.031Z,16.54
2023-06-28T22:25:13.123Z,16.45
2023-06-28T22:27:41.241Z,16.39
2023-06-28T22:30:10.900Z,16.35
2023-06-28T22:32:44.056Z,16.31
2023-06-28T22:35:12.335Z,16.28
2023-06-28T22:37:40.445Z,16.27
2023-06-28T22:40:09.668Z,16.28
2023-06-28T22:42:38.188Z,16.26
2023-06-28T22:45:06.967Z,16.26
2023-06-28T22:47:38.325Z,16.26
2023-06-28T22:50:10.078Z,16.25
2023-06-28T22:52:42.829Z,16.23
2023-06-28T22:55:11.640Z,16.18
2023-06-28T22:57:39.952Z,16.14
2023-06-28T23:00:11.489Z,16.07
2023-06-28T23:02:39.835Z,16.07
2023-06-28T23:05:08.743Z,16.04
2023-06-28T23:07:37.161Z,16.03
2023-06-28T23:10:06.270Z,16.00
2023-06-28T23:12:38.582Z,15.97
2023-06-28T23:15:11.129Z,15.90
2023-06-28T23:17:39.389Z,15.85
2023-06-28T23:20:09.388Z,15.82
2023-06-28T23:22:38.208Z,15.78
2023-06-28T23:25:06.935Z,15.75
2023-06-28T23:27:36.553Z,15.74
2023-06-28T23:30:05.181Z,15.74
2023-06-28T23:32:33.455Z,15.74
2023-06-28T23:35:01.554Z,15.79
2023-06-28T23:37:29.748Z,15.80
2023-06-28T23:39:57.985Z,15.79
2023-06-28T23:42:26.183Z,15.75
2023-06-28T23:44:54.303Z,15.72
2023-06-28T23:47:22.478Z,15.74
2023-06-28T23:49:51.845Z,15.76
2023-06-28T23:52:20.170Z,15.76
2023-06-28T23:54:50.291Z,15.76
2023-06-28T23:57:18.525Z,15.75
2023-06-28T23:59:46.750Z,15.77
